Data for 12/22/2008

Time Sea-Level Adjusted Pressure Absolute Pressure Temperature Relative Humidity Dew Point   
(mb) (inHg) (mb) (inHg) (C) (F) (%) (C) (F)
00:05 1006 29.71 835 24.66 -13.8 7.2 81 -16.3 2.6
00:10 1006 29.71 835 24.66 -14 6.9 82 -16.4 2.6
00:15 1005 29.68 835 24.66 -14 6.8 83 -16.3 2.6
00:20 1005 29.68 835 24.66 -14 6.8 83 -16.3 2.6
00:25 1005 29.68 835 24.66 -13.8 7.1 82 -16.2 2.8
00:30 1005 29.68 835 24.66 -13.5 7.7 81 -16.2 2.9
00:35 1005 29.68 834 24.63 -13.5 7.6 82 -16 3.2
00:40 1005 29.68 834 24.63 -13.5 7.7 81 -16.1 3
00:45 1005 29.68 834 24.63 -13.4 7.9 82 -15.9 3.4
00:50 1005 29.68 834 24.63 -13.3 8 81 -15.9 3.4
00:55 1005 29.68 834 24.63 -13.3 8.1 81 -15.9 3.3
01:00 1005 29.68 834 24.63 -13.2 8.2 80 -15.9 3.4
01:05 1005 29.68 834 24.63 -13.1 8.4 80 -15.8 3.6
01:10 1005 29.68 834 24.63 -12.9 8.8 80 -15.7 3.8
01:15 1004 29.65 834 24.63 -12.6 9.4 78 -15.6 3.9
01:20 1004 29.65 834 24.63 -12.6 9.4 79 -15.5 4.1
01:25 1004 29.65 833 24.6 -12.6 9.4 79 -15.5 4.1
01:30 1004 29.65 833 24.6 -12.3 10 78 -15.4 4.4
01:35 1004 29.65 833 24.6 -12.1 10.3 79 -15.1 4.9
01:40 1004 29.65 833 24.6 -12.1 10.1 80 -14.9 5.1
01:45 1004 29.65 833 24.6 -11.9 10.5 79 -14.9 5.2
01:50 1004 29.65 833 24.6 -11.8 10.9 79 -14.7 5.5
01:55 1004 29.65 833 24.6 -11.6 11.2 79 -14.5 5.9
02:00 1004 29.65 833 24.6 -11.5 11.3 78 -14.6 5.7
02:05 1004 29.65 833 24.6 -11.9 10.6 80 -14.7 5.5
02:10 1003 29.62 833 24.6 -12.3 10 81 -14.9 5.2
02:15 1003 29.62 833 24.6 -12.3 9.9 82 -14.8 5.4
02:20 1003 29.62 833 24.6 -12.2 10 82 -14.7 5.5
02:25 1003 29.62 832 24.57 -12.2 10 83 -14.6 5.8
02:30 1003 29.62 832 24.57 -12.1 10.2 83 -14.5 5.9
02:35 1003 29.62 832 24.57 -12.1 10.2 82 -14.7 5.6
02:40 1003 29.62 832 24.57 -12.1 10.3 81 -14.6 5.7
02:45 1003 29.62 832 24.57 -11.9 10.5 82 -14.5 6
02:50 1003 29.62 832 24.57 -11.8 10.9 81 -14.4 6.1
02:55 1003 29.62 832 24.57 -11.7 11 81 -14.3 6.2
03:00 1003 29.62 832 24.57 -11.6 11.2 80 -14.4 6.1
03:05 1003 29.62 832 24.57 -11.6 11.1 82 -14.1 6.6
03:10 1003 29.62 832 24.57 -11.7 10.9 82 -14.2 6.5
03:15 1003 29.62 832 24.57 -12 10.4 82 -14.5 6
03:20 1002 29.59 832 24.57 -12.3 9.8 83 -14.6 5.7
03:25 1002 29.59 832 24.57 -12.4 9.7 85 -14.5 6
03:30 1002 29.59 831 24.54 -12.2 10 83 -14.5 5.9
03:35 1002 29.59 831 24.54 -11.9 10.6 82 -14.4 6.1
03:40 1002 29.59 831 24.54 -11.9 10.7 81 -14.5 5.9
03:45 1002 29.59 831 24.54 -12 10.5 80 -14.7 5.6
03:50 1002 29.59 831 24.54 -12.1 10.3 82 -14.6 5.7
03:55 1002 29.59 831 24.54 -11.9 10.5 81 -14.6 5.7
04:00 1002 29.59 831 24.54 -11.9 10.6 81 -14.6 5.7
04:05 1002 29.59 831 24.54 -12.1 10.2 82 -14.6 5.7
04:10 1002 29.59 831 24.54 -12.2 10 82 -14.7 5.5
04:15 1002 29.59 831 24.54 -12.3 9.9 82 -14.7 5.5
04:20 1002 29.59 831 24.54 -12.4 9.6 82 -15 5.1
04:25 1002 29.59 831 24.54 -12.7 9.1 82 -15.2 4.7
04:30 1002 29.59 831 24.54 -12.8 9 83 -15.1 4.8
04:35 1002 29.59 831 24.54 -13 8.5 84 -15.2 4.6
04:40 1002 29.59 831 24.54 -13 8.5 85 -15.1 4.8
04:45 1002 29.59 831 24.54 -12.9 8.8 85 -14.9 5.1
04:50 1002 29.59 831 24.54 -12.7 9.1 84 -14.8 5.3
04:55 1001 29.56 831 24.54 -12.6 9.3 85 -14.7 5.6
05:00 1001 29.56 830 24.51 -12.6 9.3 85 -14.7 5.6
05:05 1001 29.56 830 24.51 -12.6 9.4 85 -14.7 5.6
05:10 1001 29.56 830 24.51 -12.5 9.5 85 -14.5 5.9
05:15 1001 29.56 830 24.51 -12.3 9.8 85 -14.3 6.2
05:20 1001 29.56 830 24.51 -12.1 10.2 85 -14.1 6.6
05:25 1001 29.56 830 24.51 -12.1 10.3 85 -14 6.7
05:30 1001 29.56 830 24.51 -12 10.4 86 -14 6.8
05:35 1001 29.56 830 24.51 -11.9 10.6 85 -13.9 6.9
05:40 1000 29.53 830 24.51 -11.9 10.7 85 -13.9 7
05:45 1000 29.53 830 24.51 -11.9 10.5 86 -13.8 7.2
05:50 1000 29.53 830 24.51 -11.6 11.1 84 -13.7 7.3
05:55 1000 29.53 830 24.51 -11.3 11.7 81 -13.9 7.1
06:00 1000 29.53 830 24.51 -11.1 12 82 -13.6 7.5
06:05 1000 29.53 830 24.51 -10.7 12.7 79 -13.7 7.4
06:10 1000 29.53 829 24.48 -10.4 13.2 79 -13.4 7.9
06:15 1000 29.53 829 24.48 -10.2 13.6 79 -13.2 8.3
06:20 1000 29.53 829 24.48 -10.3 13.5 80 -13.1 8.3
06:25 1000 29.53 830 24.51 -10.2 13.6 80 -13.1 8.4
06:30 1000 29.53 830 24.51 -10.2 13.6 80 -13 8.6
06:35 1000 29.53 830 24.51 -10.4 13.2 80 -13.3 8.1
06:40 1000 29.53 830 24.51 -10.8 12.5 81 -13.6 7.6
06:45 1000 29.53 830 24.51 -11.1 12.1 81 -13.8 7.2
06:50 1000 29.53 830 24.51 -11.3 11.6 81 -13.9 7
06:55 1000 29.53 830 24.51 -11.6 11 82 -14.2 6.5
07:00 1000 29.53 830 24.51 -11.8 10.8 83 -14.2 6.4
07:05 1000 29.53 829 24.48 -12.1 10.2 83 -14.4 6
07:10 1000 29.53 829 24.48 -12.8 8.9 86 -14.7 5.6
07:15 1000 29.53 829 24.48 -13.1 8.5 87 -14.8 5.3
07:20 1000 29.53 829 24.48 -13 8.6 87 -14.8 5.4
07:25 1000 29.53 829 24.48 -12.6 9.4 85 -14.6 5.7
07:30 1000 29.53 829 24.48 -12.4 9.6 83 -14.7 5.6
07:35 1000 29.53 829 24.48 -12.4 9.6 83 -14.7 5.5
07:40 1000 29.53 829 24.48 -12.4 9.7 83 -14.7 5.5
07:45 1000 29.53 829 24.48 -12.4 9.7 82 -14.8 5.4
07:50 1000 29.53 829 24.48 -12.4 9.7 82 -14.8 5.3
07:55 1000 29.53 829 24.48 -12.4 9.6 83 -14.7 5.6
08:00 1000 29.53 829 24.48 -12.4 9.7 83 -14.7 5.5
08:05 1000 29.53 829 24.48 -12.5 9.4 84 -14.7 5.5
08:10 1000 29.53 829 24.48 -12.8 8.9 85 -14.8 5.3
08:15 1000 29.53 829 24.48 -12.7 9.1 85 -14.8 5.3
08:20 1000 29.53 829 24.48 -12.5 9.5 86 -14.4 6.1
08:25 1000 29.53 829 24.48 -12.1 10.2 85 -14.2 6.5
08:30 1000 29.53 829 24.48 -12.1 10.3 85 -14.1 6.6
08:35 1000 29.53 829 24.48 -12 10.3 85 -14 6.8
08:40 1000 29.53 829 24.48 -11.9 10.5 86 -13.8 7.1
08:45 1000 29.53 829 24.48 -11.7 10.9 85 -13.7 7.3
08:50 1000 29.53 829 24.48 -11.6 11.1 85 -13.6 7.5
08:55 1000 29.53 829 24.48 -11.4 11.5 86 -13.3 8.1
09:00 1000 29.53 829 24.48 -11.1 12.1 86 -13.1 8.5
09:05 1000 29.53 829 24.48 -10.9 12.4 85 -12.9 8.8
09:10 1000 29.53 829 24.48 -10.7 12.8 85 -12.7 9.2
09:15 1000 29.53 829 24.48 -10.6 12.9 86 -12.6 9.3
09:20 1000 29.53 829 24.48 -10.8 12.5 87 -12.7 9.2
09:25 1000 29.53 829 24.48 -11 12.1 87 -12.8 9
09:30 1000 29.53 829 24.48 -11 12.1 88 -12.6 9.3
09:35 1000 29.53 829 24.48 -10.7 12.7 87 -12.4 9.6
09:40 1000 29.53 829 24.48 -10.5 13.2 86 -12.3 9.8
09:45 1000 29.53 829 24.48 -10.4 13.3 87 -12.2 10.1
09:50 1000 29.53 829 24.48 -10.2 13.7 86 -12.1 10.3
09:55 1000 29.53 829 24.48 -10.1 13.9 88 -11.7 10.9
10:00 1000 29.53 829 24.48 -9.9 14.2 87 -11.7 11
10:05 1000 29.53 829 24.48 -9.8 14.4 87 -11.6 11.1
10:10 1000 29.53 829 24.48 -9.7 14.6 87 -11.4 11.5
10:15 1000 29.53 829 24.48 -9.7 14.6 88 -11.3 11.7
10:20 1000 29.53 829 24.48 -9.3 15.2 88 -11 12.2
10:25 1000 29.53 829 24.48 -9.1 15.6 88 -10.8 12.5
10:30 1000 29.53 829 24.48 -9.1 15.7 88 -10.7 12.8
10:35 1000 29.53 829 24.48 -8.9 16 88 -10.5 13.1
10:40 999 29.5 829 24.48 -8.7 16.4 88 -10.3 13.5
10:45 999 29.5 829 24.48 -8.5 16.7 89 -10 13.9
10:50 999 29.5 828 24.45 -8.1 17.5 88 -9.7 14.5
10:55 999 29.5 828 24.45 -7.6 18.4 85 -9.6 14.7
11:00 999 29.5 828 24.45 -7.5 18.4 87 -9.4 15.1
11:05 999 29.5 828 24.45 -7.2 19.1 83 -9.6 14.8
11:10 999 29.5 828 24.45 -7.2 19.1 83 -9.5 14.8
11:15 999 29.5 828 24.45 -7.5 18.5 83 -10 14
11:20 999 29.5 828 24.45 -8.2 17.2 82 -10.8 12.6
11:25 999 29.5 828 24.45 -9.2 15.5 82 -11.8 10.8
11:30 999 29.5 828 24.45 -10.1 13.9 83 -12.5 9.5
11:35 999 29.5 829 24.48 -10.6 12.9 83 -13 8.7
11:40 999 29.5 829 24.48 -11 12.2 83 -13.4 7.9
11:45 999 29.5 828 24.45 -11.2 11.9 84 -13.4 7.9
11:50 999 29.5 828 24.45 -11.1 12.1 84 -13.3 8
11:55 999 29.5 828 24.45 -10.9 12.3 83 -13.3 8.1
12:00 999 29.5 829 24.48 -10.8 12.6 82 -13.3 8
12:05 999 29.5 829 24.48 -10.8 12.6 81 -13.4 7.8
12:10 999 29.5 828 24.45 -10.9 12.5 81 -13.5 7.7
12:15 999 29.5 829 24.48 -10.8 12.5 82 -13.3 8.1
12:20 999 29.5 829 24.48 -11 12.2 82 -13.5 7.7
12:25 999 29.5 829 24.48 -11.2 11.8 81 -13.9 7
12:30 999 29.5 829 24.48 -11.7 11 83 -14 6.9
12:35 999 29.5 829 24.48 -11.6 11.2 83 -13.9 6.9
12:40 999 29.5 829 24.48 -11.5 11.4 85 -13.5 7.7
12:45 999 29.5 829 24.48 -11.2 11.9 84 -13.4 7.9
12:50 999 29.5 829 24.48 -10.9 12.3 84 -13.1 8.3
12:55 999 29.5 829 24.48 -10.8 12.6 82 -13.3 8
13:00 999 29.5 829 24.48 -10.8 12.5 83 -13.2 8.2
13:05 999 29.5 829 24.48 -10.7 12.7 82 -13.2 8.2
13:10 999 29.5 829 24.48 -10.8 12.5 81 -13.4 7.8
13:15 999 29.5 829 24.48 -11 12.2 83 -13.3 8
13:20 999 29.5 829 24.48 -10.9 12.3 81 -13.6 7.5
13:25 999 29.5 829 24.48 -11.1 12 82 -13.7 7.4
13:30 999 29.5 829 24.48 -11 12.2 82 -13.5 7.6
13:35 999 29.5 829 24.48 -11.2 11.9 84 -13.4 7.9
13:40 999 29.5 829 24.48 -11.2 11.8 84 -13.5 7.7
13:45 999 29.5 829 24.48 -11.3 11.7 83 -13.5 7.6
13:50 999 29.5 829 24.48 -11.4 11.4 84 -13.7 7.4
13:55 999 29.5 829 24.48 -11.6 11.1 83 -14 6.8
14:00 999 29.5 829 24.48 -12 10.3 84 -14.3 6.3
14:05 999 29.5 829 24.48 -12.1 10.3 83 -14.3 6.2
14:10 999 29.5 829 24.48 -12.1 10.2 84 -14.3 6.2
14:15 999 29.5 829 24.48 -12.1 10.2 84 -14.3 6.2
14:20 999 29.5 829 24.48 -12 10.4 84 -14.2 6.4
14:25 999 29.5 829 24.48 -12 10.5 84 -14.2 6.5
14:30 1000 29.53 829 24.48 -11.9 10.5 84 -14.1 6.6
14:35 999 29.5 829 24.48 -12 10.5 83 -14.3 6.2
14:40 999 29.5 829 24.48 -12.1 10.2 84 -14.3 6.3
14:45 999 29.5 829 24.48 -12.4 9.8 86 -14.3 6.3
14:50 999 29.5 829 24.48 -12.4 9.7 86 -14.3 6.2
14:55 999 29.5 829 24.48 -12.1 10.2 84 -14.3 6.2
15:00 999 29.5 829 24.48 -12.1 10.2 84 -14.3 6.3
15:05 1000 29.53 829 24.48 -12.3 9.9 85 -14.4 6.2
15:10 1000 29.53 829 24.48 -12.2 10.1 83 -14.5 5.9
15:15 1000 29.53 829 24.48 -12.5 9.5 84 -14.7 5.5
15:20 1000 29.53 829 24.48 -12.8 8.9 83 -15.2 4.7
15:25 1000 29.53 829 24.48 -13.2 8.3 83 -15.5 4.2
15:30 1000 29.53 829 24.48 -13.3 8 83 -15.7 3.8
15:35 1000 29.53 829 24.48 -13.5 7.7 84 -15.7 3.8
15:40 1000 29.53 829 24.48 -13.6 7.5 85 -15.7 3.8
15:45 1000 29.53 829 24.48 -13.7 7.3 84 -15.9 3.3
15:50 1000 29.53 829 24.48 -13.8 7.1 83 -16.1 3
15:55 1000 29.53 829 24.48 -14 6.9 84 -16.1 3.1
16:00 1000 29.53 829 24.48 -14 6.7 84 -16.1 2.9
16:05 1000 29.53 830 24.51 -14.1 6.7 84 -16.2 2.8
16:10 1000 29.53 830 24.51 -14.2 6.4 83 -16.6 2.2
16:15 1001 29.56 830 24.51 -14.4 6.2 84 -16.5 2.4
16:20 1001 29.56 830 24.51 -14.4 6 83 -16.6 2
16:25 1001 29.56 830 24.51 -14.5 5.8 84 -16.6 2.1
16:30 1001 29.56 830 24.51 -14.5 5.8 85 -16.6 2.1
16:35 1001 29.56 830 24.51 -14.6 5.7 84 -16.7 2
16:40 1001 29.56 830 24.51 -14.7 5.6 85 -16.7 2
16:45 1001 29.56 830 24.51 -14.7 5.6 84 -16.8 1.7
16:50 1001 29.56 830 24.51 -14.9 5.3 85 -16.9 1.6
16:55 1001 29.56 830 24.51 -14.9 5.1 84 -17 1.4
17:00 1001 29.56 830 24.51 -15 5.1 84 -17.1 1.3
17:05 1001 29.56 830 24.51 -15.1 4.8 86 -17 1.4
17:10 1001 29.56 831 24.54 -15 5 85 -17 1.5
17:15 1001 29.56 831 24.54 -15.1 4.9 85 -17.1 1.2
17:20 1002 29.59 831 24.54 -15.2 4.7 83 -17.4 0.7
17:25 1002 29.59 831 24.54 -15.2 4.6 85 -17.3 0.9
17:30 1002 29.59 831 24.54 -15.2 4.7 85 -17.2 1.1
17:35 1002 29.59 831 24.54 -15.2 4.7 85 -17.1 1.2
17:40 1002 29.59 831 24.54 -15.1 4.9 86 -17 1.5
17:45 1002 29.59 831 24.54 -15 5 86 -16.9 1.6
17:50 1002 29.59 831 24.54 -15.1 4.9 85 -17.1 1.2
17:55 1002 29.59 831 24.54 -15.2 4.6 85 -17.2 1
18:00 1002 29.59 831 24.54 -15.4 4.3 85 -17.4 0.6
18:05 1002 29.59 831 24.54 -15.5 4.1 83 -17.8 0
18:10 1002 29.59 831 24.54 -15.8 3.6 84 -17.9 -0.3
18:15 1002 29.59 831 24.54 -15.9 3.5 85 -17.9 -0.2
18:20 1002 29.59 831 24.54 -15.8 3.6 84 -17.9 -0.3
18:25 1002 29.59 832 24.57 -16 3.2 84 -18.1 -0.6
18:30 1003 29.62 832 24.57 -16.1 3.1 84 -18.1 -0.6
18:35 1003 29.62 832 24.57 -16.2 2.9 84 -18.3 -0.9
18:40 1003 29.62 832 24.57 -16.2 2.8 84 -18.3 -1
18:45 1003 29.62 832 24.57 -16.2 2.8 84 -18.4 -1.1
18:50 1003 29.62 832 24.57 -16.4 2.5 84 -18.5 -1.2
18:55 1003 29.62 832 24.57 -16.5 2.3 84 -18.7 -1.6
19:00 1003 29.62 832 24.57 -16.5 2.2 84 -18.6 -1.5
19:05 1003 29.62 832 24.57 -16.5 2.2 84 -18.6 -1.5
19:10 1003 29.62 832 24.57 -16.6 2.1 85 -18.5 -1.4
19:15 1003 29.62 833 24.6 -16.5 2.2 84 -18.6 -1.5
19:20 1003 29.62 833 24.6 -16.6 2.2 85 -18.6 -1.5
19:25 1003 29.62 833 24.6 -16.6 2.2 84 -18.7 -1.7
19:30 1003 29.62 833 24.6 -16.7 2 84 -18.7 -1.7
19:35 1004 29.65 833 24.6 -16.6 2.1 84 -18.7 -1.7
19:40 1004 29.65 833 24.6 -16.7 2 84 -18.7 -1.7
19:45 1004 29.65 833 24.6 -16.7 2 84 -18.8 -1.9
19:50 1004 29.65 833 24.6 -16.7 2 84 -18.8 -1.8
19:55 1004 29.65 833 24.6 -16.6 2.1 85 -18.6 -1.5
20:00 1004 29.65 833 24.6 -16.6 2.2 84 -18.7 -1.6
20:05 1004 29.65 833 24.6 -16.7 2 83 -18.9 -2.1
20:10 1004 29.65 833 24.6 -16.9 1.7 84 -19 -2.3
20:15 1004 29.65 833 24.6 -17 1.5 83 -19.2 -2.5
20:20 1004 29.65 833 24.6 -17.1 1.3 84 -19.2 -2.6
20:25 1004 29.65 833 24.6 -17.1 1.2 84 -19.2 -2.6
20:30 1004 29.65 833 24.6 -17.2 1.1 84 -19.3 -2.7
20:35 1004 29.65 833 24.6 -17.1 1.2 84 -19.2 -2.6
20:40 1004 29.65 833 24.6 -17.1 1.1 83 -19.4 -2.9
20:45 1004 29.65 833 24.6 -17.2 1 84 -19.4 -2.8
20:50 1004 29.65 833 24.6 -17.2 1.1 84 -19.2 -2.6
20:55 1004 29.65 833 24.6 -17.1 1.2 85 -19.1 -2.4
21:00 1004 29.65 833 24.6 -17.1 1.2 84 -19.3 -2.7
21:05 1004 29.65 833 24.6 -17.2 1.1 83 -19.3 -2.8
21:10 1004 29.65 833 24.6 -17.2 1.1 84 -19.3 -2.7
21:15 1004 29.65 834 24.63 -17.1 1.1 84 -19.2 -2.6
21:20 1004 29.65 834 24.63 -17.1 1.3 84 -19.2 -2.6
21:25 1004 29.65 834 24.63 -17.1 1.2 84 -19.2 -2.6
21:30 1004 29.65 834 24.63 -17.1 1.2 83 -19.3 -2.8
21:35 1004 29.65 834 24.63 -17.2 1.1 83 -19.4 -2.9
21:40 1004 29.65 834 24.63 -17.2 1 82 -19.6 -3.2
21:45 1005 29.68 834 24.63 -17.4 0.7 82 -19.7 -3.5
21:50 1005 29.68 834 24.63 -17.5 0.5 81 -20 -4
21:55 1005 29.68 834 24.63 -17.6 0.3 82 -20 -4
22:00 1005 29.68 834 24.63 -17.7 0.2 82 -20.1 -4.1
22:05 1005 29.68 834 24.63 -17.7 0.1 82 -20.2 -4.3
22:10 1005 29.68 834 24.63 -17.8 -0 82 -20.2 -4.4
22:15 1005 29.68 834 24.63 -17.8 0 82 -20.1 -4.3
22:20 1005 29.68 834 24.63 -17.8 -0 81 -20.3 -4.5
22:25 1005 29.68 834 24.63 -17.9 -0.1 81 -20.3 -4.6
22:30 1005 29.68 834 24.63 -17.9 -0.2 81 -20.4 -4.7
22:35 1005 29.68 834 24.63 -18 -0.3 82 -20.3 -4.6
22:40 1005 29.68 834 24.63 -18 -0.3 82 -20.3 -4.6
22:45 1005 29.68 834 24.63 -18 -0.3 82 -20.3 -4.5
22:50 1005 29.68 834 24.63 -17.9 -0.2 82 -20.2 -4.4
22:55 1005 29.68 834 24.63 -17.9 -0.3 82 -20.3 -4.6
23:00 1005 29.68 834 24.63 -18 -0.4 83 -20.3 -4.5
23:05 1005 29.68 834 24.63 -17.9 -0.2 83 -20.2 -4.3
23:10 1005 29.68 834 24.63 -17.9 -0.2 83 -20.1 -4.2
23:15 1005 29.68 834 24.63 -17.8 -0.1 83 -20.1 -4.1
23:20 1005 29.68 834 24.63 -17.8 -0.1 83 -20.1 -4.2
23:25 1005 29.68 834 24.63 -17.9 -0.2 83 -20.2 -4.4
23:30 1005 29.68 834 24.63 -17.9 -0.2 83 -20.1 -4.2
23:35 1005 29.68 835 24.66 -17.8 -0.1 83 -20.1 -4.2
23:40 1005 29.68 834 24.63 -18 -0.3 82 -20.3 -4.5
23:45 1005 29.68 834 24.63 -18.1 -0.6 83 -20.4 -4.7
23:50 1005 29.68 834 24.63 -18.1 -0.5 83 -20.3 -4.6
23:55 1005 29.68 834 24.63 -18.1 -0.5 83 -20.3 -4.6
24:00 1005 29.68 834 24.63 -18 -0.4 82 -20.4 -4.7